Adventure of The Seas — C6SA3 — position and weather

sailwx.info

Track history (hours):
 
Tides and Currents Weather Stations Pressure Air Temp Water Temp Dewpoint Dewpoint Depression Visibility Wind Speed Wind Dir Waves Ship Positions

Adventure of The Seas

Operator: Royal Caribbean Cruises Ltd

Last reported at 2014-Oct-31 10:33 UTC. Time now 2014-Oct-31 17:40 UTC.
Position N 47°52' W 005°54'.

Type: Passenger vessel. MMSI: 311263000.

Date/timePositionNaut miles runAvg speedWind from/ knotsBaromVisibWave heightAir tempDewpointWater temp
2014-Oct-31 10:33N 47°52' W 005°54'2115.9
2014-Oct-31 09:14N 47°34' W 005°39'1115.6
2014-Oct-31 08:33N 47°24' W 005°33'1615.9
2014-Oct-31 07:34N 47°09' W 005°26'1716.0
2014-Oct-31 06:31N 46°54' W 005°16'1616.7
2014-Oct-31 05:33N 46°39' W 005°06'1916.3
2014-Oct-31 04:25N 46°22' W 004°56'1416.1
2014-Oct-31 03:32N 46°09' W 004°48'1616.2
2014-Oct-31 02:33N 45°54' W 004°39'1716.7
2014-Oct-31 01:33N 45°39' W 004°30'1616.3
2014-Oct-31 00:33N 45°24' W 004°21'2016.1
2014-Oct-30 23:20N 45°06' W 004°09'96 4.8
2014-Oct-30 03:17N 43°38' W 003°16'7 8.9
2014-Oct-30 02:32N 43°44' W 003°21'8510.4
2014-Oct-29 18:22N 43°42' W 005°19'1111.9
2014-Oct-29 17:25N 43°37' W 005°33'6 0.7
2014-Oct-29 08:33N 43°35' W 005°40'1211.7
2014-Oct-29 07:33N 43°46' W 005°46'2215.4
2014-Oct-29 06:09N 43°51' W 006°15'174 4.4
2014-Oct-27 14:33N 46°35' W 007°37'2920.7
2014-Oct-27 13:09N 47°01' W 007°18'3220.2
2014-Oct-27 11:33N 47°30' W 006°56'20220.1
2014-Oct-27 01:32N 49°51' W 003°19'2222.6
2014-Oct-27 00:33N 50°00' W 002°47'2220.8
2014-Oct-26 23:29N 50°07' W 002°15'4118.5
2014-Oct-26 21:16N 50°25' W 001°17'1317.9
2014-Oct-26 20:33N 50°34' W 001°02'1111.4
2014-Oct-26 19:33N 50°45' W 001°05'1211.9
2014-Oct-26 18:33N 50°51' W 001°21'4 3.5
2014-Oct-26 17:33N 50°54' W 001°25'0 0.0
2014-Oct-26 16:33N 50°54' W 001°25'0 0.0
2014-Oct-26 15:33N 50°54' W 001°25'0 0.0
2014-Oct-26 14:33N 50°54' W 001°25'0 0.0
2014-Oct-26 13:33N 50°54' W 001°25'0 0.0
2014-Oct-26 12:33N 50°54' W 001°25'0 0.0
2014-Oct-26 11:33N 50°54' W 001°25'0 0.0
2014-Oct-26 10:33N 50°54' W 001°25'0 0.0
2014-Oct-26 09:33N 50°54' W 001°25'0 0.0
2014-Oct-26 08:33N 50°54' W 001°25'0 0.0
2014-Oct-26 07:33N 50°54' W 001°25'0 0.0
2014-Oct-26 06:33N 50°54' W 001°25'0 0.0
2014-Oct-26 05:33N 50°54' W 001°25'0 0.1
2014-Oct-26 04:33N 50°54' W 001°25'7 7.3
2014-Oct-26 03:33N 50°48' W 001°18'10 9.6
2014-Oct-26 02:33N 50°44' W 001°04'8 8.0
2014-Oct-26 01:33N 50°37' W 000°59'  
2014-Oct-23 16:26N 38°37' W 009°23'1112.3
2014-Oct-23 15:34N 38°41' W 009°10'2 2.3
2014-Oct-23 14:32N 38°42' W 009°08'0 0.0
2014-Oct-23 13:32N 38°42' W 009°08'0 0.0
2014-Oct-23 12:32N 38°42' W 009°08'0 0.0
2014-Oct-23 11:32N 38°42' W 009°08'0 0.0
2014-Oct-23 10:32N 38°42' W 009°08'0 0.0
2014-Oct-23 09:32N 38°42' W 009°08'0 0.0
2014-Oct-23 08:32N 38°42' W 009°08'0 0.0
2014-Oct-23 07:32N 38°42' W 009°08'0 0.0
2014-Oct-23 06:32N 38°42' W 009°08'0 0.4
2014-Oct-23 05:33N 38°42' W 009°07'1110.6
2014-Oct-23 04:33N 38°39' W 009°20'1312.5
2014-Oct-23 03:33N 38°26' W 009°23'1414.0
2014-Oct-23 02:33N 38°12' W 009°24'1413.7
2014-Oct-23 01:33N 37°59' W 009°23'1414.2
2014-Oct-23 00:33N 37°44' W 009°22'1414.6
2014-Oct-22 23:33N 37°30' W 009°22'1414.1
2014-Oct-22 22:33N 37°16' W 009°21'1414.3
2014-Oct-22 21:33N 37°01' W 009°21'1413.9
2014-Oct-22 20:33N 36°48' W 009°15'2014.2
2014-Oct-22 19:07N 36°39' W 008°53'915.5
2014-Oct-22 18:33N 36°37' W 008°42'15715.4
2014-Oct-22 08:25N 35°58' W 005°34'1113.4
2014-Oct-22 07:33N 36°01' W 005°21'21614.9
2014-Oct-21 17:06N 37°23' W 001°11'815.7
2014-Oct-21 16:34N 37°29' W 001°04'  
Track history (hours):
 
Tides and Currents Weather Stations Pressure Air Temp Water Temp Dewpoint Dewpoint Depression Visibility Wind Speed Wind Dir Waves Ship Positions

Adventure of The Seas

Operator: Royal Caribbean Cruises Ltd

Last reported at 2014-Oct-31 10:33 UTC. Time now 2014-Oct-31 17:40 UTC.
Position N 47°52' W 005°54'.

Type: Passenger vessel. MMSI: 311263000.

Date/timePositionNaut miles runAvg speedWind from/ knotsBaromVisibWave heightAir tempDewpointWater temp
2014-Oct-31 10:33N 47°52' W 005°54'2115.9
2014-Oct-31 09:14N 47°34' W 005°39'1115.6
2014-Oct-31 08:33N 47°24' W 005°33'1615.9
2014-Oct-31 07:34N 47°09' W 005°26'1716.0
2014-Oct-31 06:31N 46°54' W 005°16'1616.7
2014-Oct-31 05:33N 46°39' W 005°06'1916.3
2014-Oct-31 04:25N 46°22' W 004°56'1416.1
2014-Oct-31 03:32N 46°09' W 004°48'1616.2
2014-Oct-31 02:33N 45°54' W 004°39'1716.7
2014-Oct-31 01:33N 45°39' W 004°30'1616.3
2014-Oct-31 00:33N 45°24' W 004°21'2016.1
2014-Oct-30 23:20N 45°06' W 004°09'96 4.8
2014-Oct-30 03:17N 43°38' W 003°16'7 8.9
2014-Oct-30 02:32N 43°44' W 003°21'8510.4
2014-Oct-29 18:22N 43°42' W 005°19'1111.9
2014-Oct-29 17:25N 43°37' W 005°33'6 0.7
2014-Oct-29 08:33N 43°35' W 005°40'1211.7
2014-Oct-29 07:33N 43°46' W 005°46'2215.4
2014-Oct-29 06:09N 43°51' W 006°15'174 4.4
2014-Oct-27 14:33N 46°35' W 007°37'2920.7
2014-Oct-27 13:09N 47°01' W 007°18'3220.2
2014-Oct-27 11:33N 47°30' W 006°56'20220.1
2014-Oct-27 01:32N 49°51' W 003°19'2222.6
2014-Oct-27 00:33N 50°00' W 002°47'2220.8
2014-Oct-26 23:29N 50°07' W 002°15'4118.5
2014-Oct-26 21:16N 50°25' W 001°17'1317.9
2014-Oct-26 20:33N 50°34' W 001°02'1111.4
2014-Oct-26 19:33N 50°45' W 001°05'1211.9
2014-Oct-26 18:33N 50°51' W 001°21'4 3.5
2014-Oct-26 17:33N 50°54' W 001°25'0 0.0
2014-Oct-26 16:33N 50°54' W 001°25'0 0.0
2014-Oct-26 15:33N 50°54' W 001°25'0 0.0
2014-Oct-26 14:33N 50°54' W 001°25'0 0.0
2014-Oct-26 13:33N 50°54' W 001°25'0 0.0
2014-Oct-26 12:33N 50°54' W 001°25'0 0.0
2014-Oct-26 11:33N 50°54' W 001°25'0 0.0
2014-Oct-26 10:33N 50°54' W 001°25'0 0.0
2014-Oct-26 09:33N 50°54' W 001°25'0 0.0
2014-Oct-26 08:33N 50°54' W 001°25'0 0.0
2014-Oct-26 07:33N 50°54' W 001°25'0 0.0
2014-Oct-26 06:33N 50°54' W 001°25'0 0.0
2014-Oct-26 05:33N 50°54' W 001°25'0 0.1
2014-Oct-26 04:33N 50°54' W 001°25'7 7.3
2014-Oct-26 03:33N 50°48' W 001°18'10 9.6
2014-Oct-26 02:33N 50°44' W 001°04'8 8.0
2014-Oct-26 01:33N 50°37' W 000°59'  
2014-Oct-23 16:26N 38°37' W 009°23'1112.3
2014-Oct-23 15:34N 38°41' W 009°10'2 2.3
2014-Oct-23 14:32N 38°42' W 009°08'0 0.0
2014-Oct-23 13:32N 38°42' W 009°08'0 0.0
2014-Oct-23 12:32N 38°42' W 009°08'0 0.0
2014-Oct-23 11:32N 38°42' W 009°08'0 0.0
2014-Oct-23 10:32N 38°42' W 009°08'0 0.0
2014-Oct-23 09:32N 38°42' W 009°08'0 0.0
2014-Oct-23 08:32N 38°42' W 009°08'0 0.0
2014-Oct-23 07:32N 38°42' W 009°08'0 0.0
2014-Oct-23 06:32N 38°42' W 009°08'0 0.4
2014-Oct-23 05:33N 38°42' W 009°07'1110.6
2014-Oct-23 04:33N 38°39' W 009°20'1312.5
2014-Oct-23 03:33N 38°26' W 009°23'1414.0
2014-Oct-23 02:33N 38°12' W 009°24'1413.7
2014-Oct-23 01:33N 37°59' W 009°23'1414.2
2014-Oct-23 00:33N 37°44' W 009°22'1414.6
2014-Oct-22 23:33N 37°30' W 009°22'1414.1
2014-Oct-22 22:33N 37°16' W 009°21'1414.3
2014-Oct-22 21:33N 37°01' W 009°21'1413.9
2014-Oct-22 20:33N 36°48' W 009°15'2014.2
2014-Oct-22 19:07N 36°39' W 008°53'915.5
2014-Oct-22 18:33N 36°37' W 008°42'15715.4
2014-Oct-22 08:25N 35°58' W 005°34'1113.4
2014-Oct-22 07:33N 36°01' W 005°21'21614.9
2014-Oct-21 17:06N 37°23' W 001°11'815.7
2014-Oct-21 16:34N 37°29' W 001°04'  

Dump ship's entire track history